sensor_id;sensor_type;location;lat;lon;timestamp;P1;durP1;ratioP1;P2;durP2;ratioP2
35114;SDS011;21292;52.416;13.046;2023-03-01T00:01:57;29.98;;;13.43;;
35114;SDS011;21292;52.416;13.046;2023-03-01T00:04:31;28.05;;;14.50;;
35114;SDS011;21292;52.416;13.046;2023-03-01T00:07:00;28.00;;;16.23;;
35114;SDS011;21292;52.416;13.046;2023-03-01T00:09:28;25.27;;;14.80;;
35114;SDS011;21292;52.416;13.046;2023-03-01T00:12:03;27.08;;;16.45;;
35114;SDS011;21292;52.416;13.046;2023-03-01T00:14:32;27.42;;;14.77;;
35114;SDS011;21292;52.416;13.046;2023-03-01T00:17:01;24.23;;;13.75;;
35114;SDS011;21292;52.416;13.046;2023-03-01T00:19:30;24.75;;;13.70;;
35114;SDS011;21292;52.416;13.046;2023-03-01T00:21:59;30.10;;;15.10;;
35114;SDS011;21292;52.416;13.046;2023-03-01T00:24:28;28.10;;;13.90;;
35114;SDS011;21292;52.416;13.046;2023-03-01T00:26:56;30.30;;;14.77;;
35114;SDS011;21292;52.416;13.046;2023-03-01T00:29:28;27.67;;;13.73;;
35114;SDS011;21292;52.416;13.046;2023-03-01T00:31:56;26.27;;;14.48;;
35114;SDS011;21292;52.416;13.046;2023-03-01T00:34:25;26.30;;;13.63;;
35114;SDS011;21292;52.416;13.046;2023-03-01T00:36:53;22.92;;;13.50;;
35114;SDS011;21292;52.416;13.046;2023-03-01T00:39:21;31.23;;;15.52;;
35114;SDS011;21292;52.416;13.046;2023-03-01T00:41:50;30.17;;;14.45;;
35114;SDS011;21292;52.416;13.046;2023-03-01T00:44:18;28.08;;;13.98;;
35114;SDS011;21292;52.416;13.046;2023-03-01T00:46:48;34.15;;;15.68;;
35114;SDS011;21292;52.416;13.046;2023-03-01T00:49:16;29.45;;;14.90;;
35114;SDS011;21292;52.416;13.046;2023-03-01T00:51:45;26.80;;;13.93;;
35114;SDS011;21292;52.416;13.046;2023-03-01T00:54:13;29.67;;;14.82;;
35114;SDS011;21292;52.416;13.046;2023-03-01T00:56:41;29.27;;;15.40;;
35114;SDS011;21292;52.416;13.046;2023-03-01T00:59:09;28.75;;;15.45;;
35114;SDS011;21292;52.416;13.046;2023-03-01T01:01:38;30.52;;;15.38;;
35114;SDS011;21292;52.416;13.046;2023-03-01T01:04:09;30.27;;;15.90;;
35114;SDS011;21292;52.416;13.046;2023-03-01T01:06:39;34.05;;;16.50;;
35114;SDS011;21292;52.416;13.046;2023-03-01T01:09:10;28.42;;;15.35;;
35114;SDS011;21292;52.416;13.046;2023-03-01T01:11:44;30.25;;;16.58;;
35114;SDS011;21292;52.416;13.046;2023-03-01T01:14:16;32.03;;;17.50;;
35114;SDS011;21292;52.416;13.046;2023-03-01T01:16:45;35.92;;;17.45;;
35114;SDS011;21292;52.416;13.046;2023-03-01T01:19:15;36.40;;;18.98;;
35114;SDS011;21292;52.416;13.046;2023-03-01T01:21:44;34.70;;;18.50;;
35114;SDS011;21292;52.416;13.046;2023-03-01T01:24:13;33.42;;;17.70;;
35114;SDS011;21292;52.416;13.046;2023-03-01T01:26:42;30.20;;;16.98;;
35114;SDS011;21292;52.416;13.046;2023-03-01T01:29:11;32.17;;;15.98;;
35114;SDS011;21292;52.416;13.046;2023-03-01T01:31:42;28.33;;;15.13;;
35114;SDS011;21292;52.416;13.046;2023-03-01T01:34:13;39.15;;;17.08;;
35114;SDS011;21292;52.416;13.046;2023-03-01T01:36:44;31.75;;;16.08;;
35114;SDS011;21292;52.416;13.046;2023-03-01T01:39:18;31.17;;;15.95;;
35114;SDS011;21292;52.416;13.046;2023-03-01T01:41:46;33.35;;;15.15;;
35114;SDS011;21292;52.416;13.046;2023-03-01T01:44:17;40.35;;;17.55;;
35114;SDS011;21292;52.416;13.046;2023-03-01T01:46:47;32.53;;;15.45;;
35114;SDS011;21292;52.416;13.046;2023-03-01T01:49:26;31.40;;;17.02;;
35114;SDS011;21292;52.416;13.046;2023-03-01T01:51:59;33.38;;;16.40;;
35114;SDS011;21292;52.416;13.046;2023-03-01T01:54:32;31.40;;;16.60;;
35114;SDS011;21292;52.416;13.046;2023-03-01T01:57:06;34.17;;;17.27;;
35114;SDS011;21292;52.416;13.046;2023-03-01T01:59:37;32.50;;;17.30;;
35114;SDS011;21292;52.416;13.046;2023-03-01T02:02:07;39.22;;;17.63;;
35114;SDS011;21292;52.416;13.046;2023-03-01T02:04:37;30.83;;;17.25;;
35114;SDS011;21292;52.416;13.046;2023-03-01T02:07:07;33.72;;;18.35;;
35114;SDS011;21292;52.416;13.046;2023-03-01T02:09:37;36.63;;;20.10;;
35114;SDS011;21292;52.416;13.046;2023-03-01T02:12:06;42.50;;;19.52;;
35114;SDS011;21292;52.416;13.046;2023-03-01T02:14:35;38.03;;;20.58;;
35114;SDS011;21292;52.416;13.046;2023-03-01T02:17:03;35.00;;;19.35;;
35114;SDS011;21292;52.416;13.046;2023-03-01T02:19:36;35.40;;;17.50;;
35114;SDS011;21292;52.416;13.046;2023-03-01T02:22:13;34.63;;;18.05;;
35114;SDS011;21292;52.416;13.046;2023-03-01T02:24:50;32.13;;;17.58;;
35114;SDS011;21292;52.416;13.046;2023-03-01T02:27:26;31.90;;;16.95;;
35114;SDS011;21292;52.416;13.046;2023-03-01T02:30:00;27.65;;;17.77;;
35114;SDS011;21292;52.416;13.046;2023-03-01T02:32:28;32.70;;;17.65;;
35114;SDS011;21292;52.416;13.046;2023-03-01T02:34:57;31.55;;;17.90;;
35114;SDS011;21292;52.416;13.046;2023-03-01T02:37:26;32.58;;;16.75;;
35114;SDS011;21292;52.416;13.046;2023-03-01T02:39:58;29.45;;;17.50;;
35114;SDS011;21292;52.416;13.046;2023-03-01T02:42:30;33.20;;;17.80;;
35114;SDS011;21292;52.416;13.046;2023-03-01T02:45:02;30.70;;;16.05;;
35114;SDS011;21292;52.416;13.046;2023-03-01T02:47:31;35.35;;;17.27;;
35114;SDS011;21292;52.416;13.046;2023-03-01T02:49:59;33.10;;;16.95;;
35114;SDS011;21292;52.416;13.046;2023-03-01T02:52:33;32.97;;;16.35;;
35114;SDS011;21292;52.416;13.046;2023-03-01T02:55:08;29.52;;;16.13;;
35114;SDS011;21292;52.416;13.046;2023-03-01T02:57:44;37.80;;;16.65;;
35114;SDS011;21292;52.416;13.046;2023-03-01T03:00:20;32.58;;;16.13;;
35114;SDS011;21292;52.416;13.046;2023-03-01T03:02:53;29.63;;;16.30;;
35114;SDS011;21292;52.416;13.046;2023-03-01T03:05:25;33.92;;;15.30;;
35114;SDS011;21292;52.416;13.046;2023-03-01T03:07:54;28.83;;;15.70;;
35114;SDS011;21292;52.416;13.046;2023-03-01T03:10:24;27.85;;;15.35;;
35114;SDS011;21292;52.416;13.046;2023-03-01T03:12:54;29.17;;;15.73;;
35114;SDS011;21292;52.416;13.046;2023-03-01T03:15:26;30.67;;;15.40;;
35114;SDS011;21292;52.416;13.046;2023-03-01T03:17:55;29.92;;;15.35;;
35114;SDS011;21292;52.416;13.046;2023-03-01T03:20:27;35.63;;;16.90;;
35114;SDS011;21292;52.416;13.046;2023-03-01T03:22:56;28.92;;;16.27;;
35114;SDS011;21292;52.416;13.046;2023-03-01T03:25:26;34.30;;;15.90;;
35114;SDS011;21292;52.416;13.046;2023-03-01T03:27:57;28.83;;;15.90;;
35114;SDS011;21292;52.416;13.046;2023-03-01T03:30:29;31.40;;;16.83;;
35114;SDS011;21292;52.416;13.046;2023-03-01T03:32:58;34.92;;;16.10;;
35114;SDS011;21292;52.416;13.046;2023-03-01T03:35:27;34.20;;;16.38;;
35114;SDS011;21292;52.416;13.046;2023-03-01T03:38:05;38.70;;;16.02;;
35114;SDS011;21292;52.416;13.046;2023-03-01T03:40:43;29.10;;;16.25;;
35114;SDS011;21292;52.416;13.046;2023-03-01T03:43:13;33.38;;;16.13;;
35114;SDS011;21292;52.416;13.046;2023-03-01T03:45:47;33.15;;;16.83;;
35114;SDS011;21292;52.416;13.046;2023-03-01T03:48:20;29.15;;;15.05;;
35114;SDS011;21292;52.416;13.046;2023-03-01T03:50:49;32.90;;;17.70;;
35114;SDS011;21292;52.416;13.046;2023-03-01T03:53:19;28.45;;;16.30;;
35114;SDS011;21292;52.416;13.046;2023-03-01T03:55:48;33.65;;;16.73;;
35114;SDS011;21292;52.416;13.046;2023-03-01T03:58:18;31.27;;;16.45;;
35114;SDS011;21292;52.416;13.046;2023-03-01T04:01:00;30.88;;;16.58;;
35114;SDS011;21292;52.416;13.046;2023-03-01T04:03:29;40.10;;;19.13;;
35114;SDS011;21292;52.416;13.046;2023-03-01T04:05:58;32.53;;;16.63;;
35114;SDS011;21292;52.416;13.046;2023-03-01T04:08:29;30.60;;;16.50;;
35114;SDS011;21292;52.416;13.046;2023-03-01T04:10:57;31.83;;;18.08;;
35114;SDS011;21292;52.416;13.046;2023-03-01T04:13:27;37.35;;;17.70;;
35114;SDS011;21292;52.416;13.046;2023-03-01T04:15:59;33.75;;;19.73;;
35114;SDS011;21292;52.416;13.046;2023-03-01T04:18:29;42.92;;;20.50;;
35114;SDS011;21292;52.416;13.046;2023-03-01T04:20:58;41.17;;;19.75;;
35114;SDS011;21292;52.416;13.046;2023-03-01T04:23:26;39.22;;;19.98;;
35114;SDS011;21292;52.416;13.046;2023-03-01T04:25:56;42.30;;;20.13;;
35114;SDS011;21292;52.416;13.046;2023-03-01T04:28:26;37.35;;;20.08;;
35114;SDS011;21292;52.416;13.046;2023-03-01T04:31:04;40.83;;;20.73;;
35114;SDS011;21292;52.416;13.046;2023-03-01T04:33:42;39.85;;;19.63;;
35114;SDS011;21292;52.416;13.046;2023-03-01T04:36:14;37.35;;;18.00;;
35114;SDS011;21292;52.416;13.046;2023-03-01T04:38:43;36.53;;;18.70;;
35114;SDS011;21292;52.416;13.046;2023-03-01T04:41:14;35.83;;;19.48;;
35114;SDS011;21292;52.416;13.046;2023-03-01T04:43:45;37.70;;;19.67;;
35114;SDS011;21292;52.416;13.046;2023-03-01T04:46:17;36.35;;;18.83;;
35114;SDS011;21292;52.416;13.046;2023-03-01T04:51:15;35.78;;;20.02;;
35114;SDS011;21292;52.416;13.046;2023-03-01T04:53:46;46.13;;;18.77;;
35114;SDS011;21292;52.416;13.046;2023-03-01T04:56:15;36.15;;;18.02;;
35114;SDS011;21292;52.416;13.046;2023-03-01T04:58:44;36.45;;;18.48;;
35114;SDS011;21292;52.416;13.046;2023-03-01T05:01:15;38.58;;;19.38;;
35114;SDS011;21292;52.416;13.046;2023-03-01T05:03:46;39.97;;;18.95;;
35114;SDS011;21292;52.416;13.046;2023-03-01T05:06:15;45.50;;;19.02;;
35114;SDS011;21292;52.416;13.046;2023-03-01T05:08:44;38.13;;;22.25;;
35114;SDS011;21292;52.416;13.046;2023-03-01T05:11:13;49.28;;;20.77;;
35114;SDS011;21292;52.416;13.046;2023-03-01T05:13:42;39.85;;;20.15;;
35114;SDS011;21292;52.416;13.046;2023-03-01T05:16:10;38.28;;;21.05;;
35114;SDS011;21292;52.416;13.046;2023-03-01T05:18:40;40.90;;;21.88;;
35114;SDS011;21292;52.416;13.046;2023-03-01T05:21:10;42.92;;;20.42;;
35114;SDS011;21292;52.416;13.046;2023-03-01T05:23:39;38.10;;;20.25;;
35114;SDS011;21292;52.416;13.046;2023-03-01T05:26:08;45.15;;;22.17;;
35114;SDS011;21292;52.416;13.046;2023-03-01T05:28:53;44.05;;;21.00;;
35114;SDS011;21292;52.416;13.046;2023-03-01T05:31:25;43.50;;;21.15;;
35114;SDS011;21292;52.416;13.046;2023-03-01T05:33:56;42.63;;;21.30;;
35114;SDS011;21292;52.416;13.046;2023-03-01T05:36:27;49.72;;;22.25;;
35114;SDS011;21292;52.416;13.046;2023-03-01T05:38:56;49.47;;;22.45;;
35114;SDS011;21292;52.416;13.046;2023-03-01T05:41:25;47.65;;;22.52;;
35114;SDS011;21292;52.416;13.046;2023-03-01T05:43:54;35.58;;;20.58;;
35114;SDS011;21292;52.416;13.046;2023-03-01T05:46:22;45.30;;;21.50;;
35114;SDS011;21292;52.416;13.046;2023-03-01T05:48:51;44.97;;;22.75;;
35114;SDS011;21292;52.416;13.046;2023-03-01T05:51:21;41.90;;;21.08;;
35114;SDS011;21292;52.416;13.046;2023-03-01T05:53:49;47.25;;;20.90;;
35114;SDS011;21292;52.416;13.046;2023-03-01T05:56:24;46.33;;;22.38;;
35114;SDS011;21292;52.416;13.046;2023-03-01T05:58:53;41.28;;;21.50;;
35114;SDS011;21292;52.416;13.046;2023-03-01T06:01:22;41.78;;;21.85;;
35114;SDS011;21292;52.416;13.046;2023-03-01T06:03:51;47.05;;;23.23;;
35114;SDS011;21292;52.416;13.046;2023-03-01T06:06:21;43.42;;;22.42;;
35114;SDS011;21292;52.416;13.046;2023-03-01T06:08:49;57.45;;;26.23;;
35114;SDS011;21292;52.416;13.046;2023-03-01T06:11:18;50.45;;;25.20;;
35114;SDS011;21292;52.416;13.046;2023-03-01T06:13:47;57.17;;;26.50;;
35114;SDS011;21292;52.416;13.046;2023-03-01T06:16:15;44.70;;;23.40;;
35114;SDS011;21292;52.416;13.046;2023-03-01T06:18:43;50.85;;;26.75;;
35114;SDS011;21292;52.416;13.046;2023-03-01T06:21:12;51.85;;;25.75;;
35114;SDS011;21292;52.416;13.046;2023-03-01T06:23:42;59.75;;;26.05;;
35114;SDS011;21292;52.416;13.046;2023-03-01T06:26:10;51.33;;;26.38;;
35114;SDS011;21292;52.416;13.046;2023-03-01T06:28:39;43.72;;;24.15;;
35114;SDS011;21292;52.416;13.046;2023-03-01T06:31:07;56.67;;;24.95;;
35114;SDS011;21292;52.416;13.046;2023-03-01T06:33:36;42.33;;;23.63;;
35114;SDS011;21292;52.416;13.046;2023-03-01T06:36:05;44.75;;;23.75;;
35114;SDS011;21292;52.416;13.046;2023-03-01T06:38:34;48.55;;;25.60;;
35114;SDS011;21292;52.416;13.046;2023-03-01T06:41:06;40.25;;;22.92;;
35114;SDS011;21292;52.416;13.046;2023-03-01T06:43:34;40.73;;;22.67;;
35114;SDS011;21292;52.416;13.046;2023-03-01T06:46:04;37.22;;;21.58;;
35114;SDS011;21292;52.416;13.046;2023-03-01T06:48:33;40.50;;;22.38;;
35114;SDS011;21292;52.416;13.046;2023-03-01T06:51:02;36.25;;;20.98;;
35114;SDS011;21292;52.416;13.046;2023-03-01T06:53:32;34.85;;;19.40;;
35114;SDS011;21292;52.416;13.046;2023-03-01T06:56:02;29.73;;;18.58;;
35114;SDS011;21292;52.416;13.046;2023-03-01T06:58:32;32.42;;;17.75;;
35114;SDS011;21292;52.416;13.046;2023-03-01T07:01:05;31.42;;;17.55;;
35114;SDS011;21292;52.416;13.046;2023-03-01T07:03:34;32.33;;;18.77;;
35114;SDS011;21292;52.416;13.046;2023-03-01T07:06:03;28.27;;;16.75;;
35114;SDS011;21292;52.416;13.046;2023-03-01T07:08:31;31.33;;;15.88;;
35114;SDS011;21292;52.416;13.046;2023-03-01T07:11:00;28.73;;;17.27;;
35114;SDS011;21292;52.416;13.046;2023-03-01T07:13:30;31.35;;;18.88;;
35114;SDS011;21292;52.416;13.046;2023-03-01T07:16:00;30.30;;;16.70;;
35114;SDS011;21292;52.416;13.046;2023-03-01T07:18:28;29.70;;;15.93;;
35114;SDS011;21292;52.416;13.046;2023-03-01T07:20:57;27.52;;;14.25;;
35114;SDS011;21292;52.416;13.046;2023-03-01T07:23:25;26.67;;;16.52;;
35114;SDS011;21292;52.416;13.046;2023-03-01T07:25:55;22.15;;;14.13;;
35114;SDS011;21292;52.416;13.046;2023-03-01T07:28:23;24.40;;;13.70;;
35114;SDS011;21292;52.416;13.046;2023-03-01T07:30:52;20.80;;;13.57;;
35114;SDS011;21292;52.416;13.046;2023-03-01T07:33:26;22.77;;;14.25;;
35114;SDS011;21292;52.416;13.046;2023-03-01T07:35:57;21.35;;;13.25;;
35114;SDS011;21292;52.416;13.046;2023-03-01T07:38:26;22.42;;;13.25;;
35114;SDS011;21292;52.416;13.046;2023-03-01T07:40:57;22.45;;;13.52;;
35114;SDS011;21292;52.416;13.046;2023-03-01T07:43:28;18.92;;;12.13;;
35114;SDS011;21292;52.416;13.046;2023-03-01T07:45:59;21.70;;;12.77;;
35114;SDS011;21292;52.416;13.046;2023-03-01T07:48:30;20.20;;;12.52;;
35114;SDS011;21292;52.416;13.046;2023-03-01T07:50:59;20.45;;;12.40;;
35114;SDS011;21292;52.416;13.046;2023-03-01T07:53:27;20.48;;;13.35;;
35114;SDS011;21292;52.416;13.046;2023-03-01T07:56:02;19.08;;;13.60;;
35114;SDS011;21292;52.416;13.046;2023-03-01T07:58:33;21.77;;;14.25;;
35114;SDS011;21292;52.416;13.046;2023-03-01T08:01:02;24.42;;;12.55;;
35114;SDS011;21292;52.416;13.046;2023-03-01T08:03:35;19.45;;;13.02;;
35114;SDS011;21292;52.416;13.046;2023-03-01T08:06:05;23.90;;;13.93;;
35114;SDS011;21292;52.416;13.046;2023-03-01T08:08:36;23.03;;;13.63;;
35114;SDS011;21292;52.416;13.046;2023-03-01T08:11:05;18.92;;;12.32;;
35114;SDS011;21292;52.416;13.046;2023-03-01T08:13:34;22.05;;;14.00;;
35114;SDS011;21292;52.416;13.046;2023-03-01T08:16:05;20.67;;;13.93;;
35114;SDS011;21292;52.416;13.046;2023-03-01T08:18:38;22.08;;;13.98;;
35114;SDS011;21292;52.416;13.046;2023-03-01T08:21:07;22.05;;;13.63;;
35114;SDS011;21292;52.416;13.046;2023-03-01T08:23:38;20.90;;;12.85;;
35114;SDS011;21292;52.416;13.046;2023-03-01T08:26:08;17.42;;;13.38;;
35114;SDS011;21292;52.416;13.046;2023-03-01T08:28:40;19.38;;;12.90;;
35114;SDS011;21292;52.416;13.046;2023-03-01T08:31:15;19.23;;;11.77;;
35114;SDS011;21292;52.416;13.046;2023-03-01T08:33:46;17.45;;;11.43;;
35114;SDS011;21292;52.416;13.046;2023-03-01T08:36:17;19.40;;;12.15;;
35114;SDS011;21292;52.416;13.046;2023-03-01T08:38:47;21.67;;;12.75;;
35114;SDS011;21292;52.416;13.046;2023-03-01T08:41:16;18.15;;;11.05;;
35114;SDS011;21292;52.416;13.046;2023-03-01T08:43:44;19.25;;;11.70;;
35114;SDS011;21292;52.416;13.046;2023-03-01T08:46:13;17.85;;;10.90;;
35114;SDS011;21292;52.416;13.046;2023-03-01T08:48:42;20.52;;;11.73;;
35114;SDS011;21292;52.416;13.046;2023-03-01T08:51:13;17.15;;;9.90;;
35114;SDS011;21292;52.416;13.046;2023-03-01T08:53:43;15.38;;;10.80;;
35114;SDS011;21292;52.416;13.046;2023-03-01T08:56:11;17.55;;;10.40;;
35114;SDS011;21292;52.416;13.046;2023-03-01T08:58:39;14.45;;;9.77;;
35114;SDS011;21292;52.416;13.046;2023-03-01T09:01:08;16.67;;;9.65;;
35114;SDS011;21292;52.416;13.046;2023-03-01T09:03:38;13.35;;;9.20;;
35114;SDS011;21292;52.416;13.046;2023-03-01T09:06:06;15.25;;;9.30;;
35114;SDS011;21292;52.416;13.046;2023-03-01T09:08:40;19.63;;;9.50;;
35114;SDS011;21292;52.416;13.046;2023-03-01T09:11:11;17.23;;;9.10;;
35114;SDS011;21292;52.416;13.046;2023-03-01T09:13:42;17.20;;;9.80;;
35114;SDS011;21292;52.416;13.046;2023-03-01T09:16:11;17.98;;;10.45;;
35114;SDS011;21292;52.416;13.046;2023-03-01T09:18:40;17.85;;;9.40;;
35114;SDS011;21292;52.416;13.046;2023-03-01T09:21:09;16.42;;;8.82;;
35114;SDS011;21292;52.416;13.046;2023-03-01T09:23:41;17.08;;;9.32;;
35114;SDS011;21292;52.416;13.046;2023-03-01T09:26:14;12.02;;;8.45;;
35114;SDS011;21292;52.416;13.046;2023-03-01T09:28:45;13.48;;;8.32;;
35114;SDS011;21292;52.416;13.046;2023-03-01T09:31:15;12.85;;;8.00;;
35114;SDS011;21292;52.416;13.046;2023-03-01T09:33:45;14.85;;;8.90;;
35114;SDS011;21292;52.416;13.046;2023-03-01T09:36:16;16.35;;;7.93;;
35114;SDS011;21292;52.416;13.046;2023-03-01T09:38:47;13.10;;;8.02;;
35114;SDS011;21292;52.416;13.046;2023-03-01T09:41:20;13.20;;;7.68;;
35114;SDS011;21292;52.416;13.046;2023-03-01T09:43:59;13.85;;;8.40;;
35114;SDS011;21292;52.416;13.046;2023-03-01T09:49:01;10.50;;;7.25;;
35114;SDS011;21292;52.416;13.046;2023-03-01T09:51:31;12.82;;;7.20;;
35114;SDS011;21292;52.416;13.046;2023-03-01T09:54:02;11.68;;;7.30;;
35114;SDS011;21292;52.416;13.046;2023-03-01T09:56:32;10.80;;;6.28;;
35114;SDS011;21292;52.416;13.046;2023-03-01T09:59:04;10.82;;;6.13;;
35114;SDS011;21292;52.416;13.046;2023-03-01T10:01:38;10.85;;;5.32;;
35114;SDS011;21292;52.416;13.046;2023-03-01T10:04:17;12.05;;;6.40;;
35114;SDS011;21292;52.416;13.046;2023-03-01T10:06:56;10.48;;;5.97;;
35114;SDS011;21292;52.416;13.046;2023-03-01T10:09:32;10.07;;;6.18;;
35114;SDS011;21292;52.416;13.046;2023-03-01T10:14:33;10.23;;;5.95;;
35114;SDS011;21292;52.416;13.046;2023-03-01T10:17:08;13.55;;;6.65;;
35114;SDS011;21292;52.416;13.046;2023-03-01T10:19:40;10.32;;;6.47;;
35114;SDS011;21292;52.416;13.046;2023-03-01T10:22:11;12.57;;;6.97;;
35114;SDS011;21292;52.416;13.046;2023-03-01T10:24:45;10.27;;;6.38;;
35114;SDS011;21292;52.416;13.046;2023-03-01T10:27:14;10.85;;;7.30;;
35114;SDS011;21292;52.416;13.046;2023-03-01T10:29:49;10.82;;;6.18;;
35114;SDS011;21292;52.416;13.046;2023-03-01T10:32:19;10.15;;;5.78;;
35114;SDS011;21292;52.416;13.046;2023-03-01T10:34:50;11.32;;;5.63;;
35114;SDS011;21292;52.416;13.046;2023-03-01T10:37:19;9.10;;;5.55;;
35114;SDS011;21292;52.416;13.046;2023-03-01T10:39:56;11.20;;;5.75;;
35114;SDS011;21292;52.416;13.046;2023-03-01T10:42:26;11.32;;;5.65;;
35114;SDS011;21292;52.416;13.046;2023-03-01T10:44:57;8.53;;;5.73;;
35114;SDS011;21292;52.416;13.046;2023-03-01T10:47:28;8.75;;;5.65;;
35114;SDS011;21292;52.416;13.046;2023-03-01T10:49:58;12.68;;;7.13;;
35114;SDS011;21292;52.416;13.046;2023-03-01T10:52:30;10.98;;;6.03;;
35114;SDS011;21292;52.416;13.046;2023-03-01T10:55:04;11.30;;;6.55;;
35114;SDS011;21292;52.416;13.046;2023-03-01T10:58:05;12.65;;;6.55;;
35114;SDS011;21292;52.416;13.046;2023-03-01T11:00:47;9.85;;;6.20;;
35114;SDS011;21292;52.416;13.046;2023-03-01T11:03:20;11.85;;;6.50;;
35114;SDS011;21292;52.416;13.046;2023-03-01T11:05:58;9.68;;;5.50;;
35114;SDS011;21292;52.416;13.046;2023-03-01T11:08:36;8.80;;;5.25;;
35114;SDS011;21292;52.416;13.046;2023-03-01T11:11:20;10.32;;;5.88;;
35114;SDS011;21292;52.416;13.046;2023-03-01T11:13:59;10.85;;;5.85;;
35114;SDS011;21292;52.416;13.046;2023-03-01T11:16:33;8.63;;;5.47;;
35114;SDS011;21292;52.416;13.046;2023-03-01T11:19:17;8.63;;;5.30;;
35114;SDS011;21292;52.416;13.046;2023-03-01T11:21:49;10.85;;;5.70;;
35114;SDS011;21292;52.416;13.046;2023-03-01T11:24:24;11.80;;;5.60;;
35114;SDS011;21292;52.416;13.046;2023-03-01T11:26:57;7.55;;;4.82;;
35114;SDS011;21292;52.416;13.046;2023-03-01T11:29:30;9.75;;;4.95;;
35114;SDS011;21292;52.416;13.046;2023-03-01T11:32:14;7.32;;;5.20;;
35114;SDS011;21292;52.416;13.046;2023-03-01T11:34:43;10.05;;;5.35;;
35114;SDS011;21292;52.416;13.046;2023-03-01T11:39:54;11.77;;;5.43;;
35114;SDS011;21292;52.416;13.046;2023-03-01T11:42:29;9.93;;;5.60;;
35114;SDS011;21292;52.416;13.046;2023-03-01T11:45:08;11.65;;;5.13;;
35114;SDS011;21292;52.416;13.046;2023-03-01T11:47:52;7.82;;;4.95;;
35114;SDS011;21292;52.416;13.046;2023-03-01T11:50:28;7.35;;;4.10;;
35114;SDS011;21292;52.416;13.046;2023-03-01T11:53:00;13.75;;;4.97;;
35114;SDS011;21292;52.416;13.046;2023-03-01T11:55:36;6.32;;;4.53;;
35114;SDS011;21292;52.416;13.046;2023-03-01T11:58:19;9.88;;;4.68;;
35114;SDS011;21292;52.416;13.046;2023-03-01T12:03:46;9.05;;;5.07;;
35114;SDS011;21292;52.416;13.046;2023-03-01T12:06:43;6.88;;;4.72;;
35114;SDS011;21292;52.416;13.046;2023-03-01T12:09:22;10.85;;;5.15;;
35114;SDS011;21292;52.416;13.046;2023-03-01T12:12:09;10.48;;;4.95;;
35114;SDS011;21292;52.416;13.046;2023-03-01T12:15:04;8.98;;;5.43;;
35114;SDS011;21292;52.416;13.046;2023-03-01T12:17:57;9.15;;;5.55;;
35114;SDS011;21292;52.416;13.046;2023-03-01T12:20:35;6.18;;;4.50;;
35114;SDS011;21292;52.416;13.046;2023-03-01T12:23:25;8.23;;;4.47;;
35114;SDS011;21292;52.416;13.046;2023-03-01T12:26:04;8.15;;;4.57;;
35114;SDS011;21292;52.416;13.046;2023-03-01T12:28:43;8.50;;;4.20;;
35114;SDS011;21292;52.416;13.046;2023-03-01T12:31:35;7.70;;;3.95;;
35114;SDS011;21292;52.416;13.046;2023-03-01T12:34:14;8.23;;;4.47;;
35114;SDS011;21292;52.416;13.046;2023-03-01T12:36:55;9.75;;;4.30;;
35114;SDS011;21292;52.416;13.046;2023-03-01T12:39:47;6.70;;;4.27;;
35114;SDS011;21292;52.416;13.046;2023-03-01T12:42:27;9.27;;;4.60;;
35114;SDS011;21292;52.416;13.046;2023-03-01T12:45:09;9.20;;;4.82;;
35114;SDS011;21292;52.416;13.046;2023-03-01T12:47:55;8.13;;;4.40;;
35114;SDS011;21292;52.416;13.046;2023-03-01T12:50:32;6.03;;;4.20;;
35114;SDS011;21292;52.416;13.046;2023-03-01T12:53:07;8.32;;;4.57;;
35114;SDS011;21292;52.416;13.046;2023-03-01T12:55:45;8.00;;;4.75;;
35114;SDS011;21292;52.416;13.046;2023-03-01T12:58:17;8.70;;;4.35;;
35114;SDS011;21292;52.416;13.046;2023-03-01T13:01:13;4.57;;;2.97;;
35114;SDS011;21292;52.416;13.046;2023-03-01T13:03:51;5.13;;;2.90;;
35114;SDS011;21292;52.416;13.046;2023-03-01T13:06:32;8.07;;;3.60;;
35114;SDS011;21292;52.416;13.046;2023-03-01T13:09:11;7.40;;;3.40;;
35114;SDS011;21292;52.416;13.046;2023-03-01T13:11:45;6.80;;;3.70;;
35114;SDS011;21292;52.416;13.046;2023-03-01T13:17:03;7.13;;;3.67;;
35114;SDS011;21292;52.416;13.046;2023-03-01T13:19:34;5.28;;;3.15;;
35114;SDS011;21292;52.416;13.046;2023-03-01T13:25:00;5.22;;;3.65;;
35114;SDS011;21292;52.416;13.046;2023-03-01T13:27:32;10.32;;;4.53;;
35114;SDS011;21292;52.416;13.046;2023-03-01T13:30:01;9.40;;;3.95;;
35114;SDS011;21292;52.416;13.046;2023-03-01T13:32:32;10.93;;;4.20;;
35114;SDS011;21292;52.416;13.046;2023-03-01T13:41:14;8.27;;;3.90;;
35114;SDS011;21292;52.416;13.046;2023-03-01T13:43:43;9.15;;;3.17;;
35114;SDS011;21292;52.416;13.046;2023-03-01T13:46:15;6.45;;;3.20;;
35114;SDS011;21292;52.416;13.046;2023-03-01T13:48:47;5.88;;;3.17;;
35114;SDS011;21292;52.416;13.046;2023-03-01T13:53:50;5.75;;;3.40;;
35114;SDS011;21292;52.416;13.046;2023-03-01T13:56:21;6.45;;;3.22;;
35114;SDS011;21292;52.416;13.046;2023-03-01T13:58:53;7.15;;;4.43;;
35114;SDS011;21292;52.416;13.046;2023-03-01T14:01:24;8.50;;;3.53;;
35114;SDS011;21292;52.416;13.046;2023-03-01T14:03:55;7.53;;;2.90;;
35114;SDS011;21292;52.416;13.046;2023-03-01T14:06:27;6.10;;;3.60;;
35114;SDS011;21292;52.416;13.046;2023-03-01T14:09:01;7.45;;;3.85;;
35114;SDS011;21292;52.416;13.046;2023-03-01T14:11:44;5.00;;;2.90;;
35114;SDS011;21292;52.416;13.046;2023-03-01T14:14:45;5.72;;;2.75;;
35114;SDS011;21292;52.416;13.046;2023-03-01T14:17:21;5.88;;;3.03;;
35114;SDS011;21292;52.416;13.046;2023-03-01T14:20:09;9.43;;;4.45;;
35114;SDS011;21292;52.416;13.046;2023-03-01T14:22:42;8.57;;;3.42;;
35114;SDS011;21292;52.416;13.046;2023-03-01T14:25:17;5.18;;;3.15;;
35114;SDS011;21292;52.416;13.046;2023-03-01T14:27:54;5.32;;;2.92;;
35114;SDS011;21292;52.416;13.046;2023-03-01T14:30:25;8.00;;;2.63;;
35114;SDS011;21292;52.416;13.046;2023-03-01T14:32:55;6.20;;;3.55;;
35114;SDS011;21292;52.416;13.046;2023-03-01T14:35:27;6.00;;;3.40;;
35114;SDS011;21292;52.416;13.046;2023-03-01T14:37:58;4.03;;;2.58;;
35114;SDS011;21292;52.416;13.046;2023-03-01T14:40:28;5.20;;;2.55;;
35114;SDS011;21292;52.416;13.046;2023-03-01T14:42:59;4.72;;;3.05;;
35114;SDS011;21292;52.416;13.046;2023-03-01T14:45:29;13.38;;;5.47;;
35114;SDS011;21292;52.416;13.046;2023-03-01T14:47:58;8.85;;;4.93;;
35114;SDS011;21292;52.416;13.046;2023-03-01T14:50:31;9.18;;;4.55;;
35114;SDS011;21292;52.416;13.046;2023-03-01T14:53:02;8.48;;;4.30;;
35114;SDS011;21292;52.416;13.046;2023-03-01T14:55:34;5.93;;;4.22;;
35114;SDS011;21292;52.416;13.046;2023-03-01T14:58:10;8.35;;;3.45;;
35114;SDS011;21292;52.416;13.046;2023-03-01T15:00:42;5.30;;;3.22;;
35114;SDS011;21292;52.416;13.046;2023-03-01T15:03:18;5.47;;;2.90;;
35114;SDS011;21292;52.416;13.046;2023-03-01T15:05:51;6.07;;;3.28;;
35114;SDS011;21292;52.416;13.046;2023-03-01T15:08:23;11.23;;;3.80;;
35114;SDS011;21292;52.416;13.046;2023-03-01T15:11:01;5.03;;;3.17;;
35114;SDS011;21292;52.416;13.046;2023-03-01T15:13:35;6.25;;;2.63;;